sensor_id;sensor_type;location;lat;lon;timestamp;P1;durP1;ratioP1;P2;durP2;ratioP2
63320;SDS011;49449;48.800;9.534;2024-03-23T00:54:13;5.38;;;4.88;;
63320;SDS011;49449;48.800;9.534;2024-03-23T00:56:39;5.47;;;4.97;;
63320;SDS011;49449;48.800;9.534;2024-03-23T00:59:08;6.35;;;5.07;;
63320;SDS011;49449;48.800;9.534;2024-03-23T01:01:34;5.45;;;4.93;;
63320;SDS011;49449;48.800;9.534;2024-03-23T01:04:01;4.50;;;3.95;;
63320;SDS011;49449;48.800;9.534;2024-03-23T01:06:28;6.40;;;5.25;;
63320;SDS011;49449;48.800;9.534;2024-03-23T01:08:55;6.18;;;5.00;;
63320;SDS011;49449;48.800;9.534;2024-03-23T01:11:22;9.25;;;4.28;;
63320;SDS011;49449;48.800;9.534;2024-03-23T01:13:49;5.75;;;5.05;;
63320;SDS011;49449;48.800;9.534;2024-03-23T01:16:15;5.88;;;4.60;;
63320;SDS011;49449;48.800;9.534;2024-03-23T01:18:41;6.32;;;4.88;;
63320;SDS011;49449;48.800;9.534;2024-03-23T01:21:07;4.95;;;4.40;;
63320;SDS011;49449;48.800;9.534;2024-03-23T01:23:34;5.68;;;5.13;;
63320;SDS011;49449;48.800;9.534;2024-03-23T01:26:00;4.90;;;4.50;;
63320;SDS011;49449;48.800;9.534;2024-03-23T01:28:28;6.10;;;4.43;;
63320;SDS011;49449;48.800;9.534;2024-03-23T01:30:54;4.78;;;4.38;;
63320;SDS011;49449;48.800;9.534;2024-03-23T01:33:21;4.70;;;4.30;;
63320;SDS011;49449;48.800;9.534;2024-03-23T01:35:47;4.18;;;3.80;;
63320;SDS011;49449;48.800;9.534;2024-03-23T01:38:13;4.85;;;3.83;;
63320;SDS011;49449;48.800;9.534;2024-03-23T01:40:39;6.88;;;5.03;;
63320;SDS011;49449;48.800;9.534;2024-03-23T01:43:07;5.38;;;4.88;;
63320;SDS011;49449;48.800;9.534;2024-03-23T01:45:35;4.97;;;4.07;;
63320;SDS011;49449;48.800;9.534;2024-03-23T01:48:02;8.35;;;4.85;;
63320;SDS011;49449;48.800;9.534;2024-03-23T01:50:29;6.75;;;5.80;;
63320;SDS011;49449;48.800;9.534;2024-03-23T01:52:58;5.75;;;5.25;;
63320;SDS011;49449;48.800;9.534;2024-03-23T01:55:29;5.75;;;5.22;;
63320;SDS011;49449;48.800;9.534;2024-03-23T01:57:57;7.45;;;5.18;;
63320;SDS011;49449;48.800;9.534;2024-03-23T02:00:23;5.38;;;4.88;;
63320;SDS011;49449;48.800;9.534;2024-03-23T02:02:52;5.78;;;5.28;;
63320;SDS011;49449;48.800;9.534;2024-03-23T02:05:18;5.63;;;5.05;;
63320;SDS011;49449;48.800;9.534;2024-03-23T02:07:44;6.35;;;5.03;;
63320;SDS011;49449;48.800;9.534;2024-03-23T02:10:10;5.88;;;5.38;;
63320;SDS011;49449;48.800;9.534;2024-03-23T02:12:38;5.65;;;5.13;;
63320;SDS011;49449;48.800;9.534;2024-03-23T02:15:04;6.00;;;5.40;;
63320;SDS011;49449;48.800;9.534;2024-03-23T02:17:32;6.03;;;5.40;;
63320;SDS011;49449;48.800;9.534;2024-03-23T02:20:00;7.50;;;5.55;;
63320;SDS011;49449;48.800;9.534;2024-03-23T02:22:33;4.78;;;3.97;;
63320;SDS011;49449;48.800;9.534;2024-03-23T02:25:02;5.47;;;4.97;;
63320;SDS011;49449;48.800;9.534;2024-03-23T02:27:29;5.30;;;4.80;;
63320;SDS011;49449;48.800;9.534;2024-03-23T02:29:55;5.50;;;4.10;;
63320;SDS011;49449;48.800;9.534;2024-03-23T02:32:22;5.25;;;4.60;;
63320;SDS011;49449;48.800;9.534;2024-03-23T02:34:48;5.43;;;4.18;;
63320;SDS011;49449;48.800;9.534;2024-03-23T02:37:16;5.55;;;4.07;;
63320;SDS011;49449;48.800;9.534;2024-03-23T02:39:42;6.00;;;4.85;;
63320;SDS011;49449;48.800;9.534;2024-03-23T02:42:10;5.28;;;4.65;;
63320;SDS011;49449;48.800;9.534;2024-03-23T02:44:36;5.13;;;4.63;;
63320;SDS011;49449;48.800;9.534;2024-03-23T02:47:03;5.30;;;4.43;;
63320;SDS011;49449;48.800;9.534;2024-03-23T02:49:29;5.22;;;4.72;;
63320;SDS011;49449;48.800;9.534;2024-03-23T02:51:56;4.78;;;4.25;;
63320;SDS011;49449;48.800;9.534;2024-03-23T02:54:22;5.82;;;5.18;;
63320;SDS011;49449;48.800;9.534;2024-03-23T02:56:49;5.05;;;4.65;;
63320;SDS011;49449;48.800;9.534;2024-03-23T02:59:16;5.93;;;5.20;;
63320;SDS011;49449;48.800;9.534;2024-03-23T03:01:43;5.78;;;4.93;;
63320;SDS011;49449;48.800;9.534;2024-03-23T03:04:09;5.95;;;4.80;;
63320;SDS011;49449;48.800;9.534;2024-03-23T03:06:35;6.22;;;4.15;;
63320;SDS011;49449;48.800;9.534;2024-03-23T03:09:01;5.93;;;5.43;;
63320;SDS011;49449;48.800;9.534;2024-03-23T03:11:28;6.55;;;4.65;;
63320;SDS011;49449;48.800;9.534;2024-03-23T03:13:55;5.75;;;5.20;;
63320;SDS011;49449;48.800;9.534;2024-03-23T03:16:23;6.32;;;5.03;;
63320;SDS011;49449;48.800;9.534;2024-03-23T03:18:49;5.40;;;4.90;;
63320;SDS011;49449;48.800;9.534;2024-03-23T03:21:15;7.45;;;5.07;;
63320;SDS011;49449;48.800;9.534;2024-03-23T03:23:42;5.03;;;4.20;;
63320;SDS011;49449;48.800;9.534;2024-03-23T03:26:09;6.90;;;5.30;;
63320;SDS011;49449;48.800;9.534;2024-03-23T03:28:36;4.90;;;4.43;;
63320;SDS011;49449;48.800;9.534;2024-03-23T03:31:02;5.45;;;4.95;;
63320;SDS011;49449;48.800;9.534;2024-03-23T03:33:31;4.10;;;3.45;;
63320;SDS011;49449;48.800;9.534;2024-03-23T03:35:57;5.60;;;3.88;;
63320;SDS011;49449;48.800;9.534;2024-03-23T03:38:24;4.50;;;3.72;;
63320;SDS011;49449;48.800;9.534;2024-03-23T03:40:50;5.05;;;4.13;;
63320;SDS011;49449;48.800;9.534;2024-03-23T03:43:18;6.15;;;5.03;;
63320;SDS011;49449;48.800;9.534;2024-03-23T03:45:50;6.85;;;4.90;;
63320;SDS011;49449;48.800;9.534;2024-03-23T03:48:18;6.10;;;4.95;;
63320;SDS011;49449;48.800;9.534;2024-03-23T03:50:45;5.55;;;4.90;;
63320;SDS011;49449;48.800;9.534;2024-03-23T03:53:12;4.93;;;4.38;;
63320;SDS011;49449;48.800;9.534;2024-03-23T03:55:38;5.10;;;4.60;;
63320;SDS011;49449;48.800;9.534;2024-03-23T03:58:05;5.35;;;4.75;;
63320;SDS011;49449;48.800;9.534;2024-03-23T04:00:31;8.32;;;5.55;;
63320;SDS011;49449;48.800;9.534;2024-03-23T04:02:58;6.10;;;5.07;;
63320;SDS011;49449;48.800;9.534;2024-03-23T04:05:24;6.50;;;5.55;;
63320;SDS011;49449;48.800;9.534;2024-03-23T04:07:52;6.68;;;4.95;;
63320;SDS011;49449;48.800;9.534;2024-03-23T04:10:17;5.50;;;4.50;;
63320;SDS011;49449;48.800;9.534;2024-03-23T04:12:44;5.65;;;4.65;;
63320;SDS011;49449;48.800;9.534;2024-03-23T04:15:11;4.45;;;4.03;;
63320;SDS011;49449;48.800;9.534;2024-03-23T04:17:37;4.90;;;4.40;;
63320;SDS011;49449;48.800;9.534;2024-03-23T04:20:04;5.80;;;5.05;;
63320;SDS011;49449;48.800;9.534;2024-03-23T04:22:34;4.30;;;3.70;;
63320;SDS011;49449;48.800;9.534;2024-03-23T04:25:02;3.35;;;2.47;;
63320;SDS011;49449;48.800;9.534;2024-03-23T04:27:32;3.17;;;2.80;;
63320;SDS011;49449;48.800;9.534;2024-03-23T04:29:58;3.05;;;2.85;;
63320;SDS011;49449;48.800;9.534;2024-03-23T04:32:26;3.33;;;3.00;;
63320;SDS011;49449;48.800;9.534;2024-03-23T04:34:54;4.40;;;3.58;;
63320;SDS011;49449;48.800;9.534;2024-03-23T04:37:20;5.10;;;3.75;;
63320;SDS011;49449;48.800;9.534;2024-03-23T04:39:46;4.30;;;3.63;;
63320;SDS011;49449;48.800;9.534;2024-03-23T04:42:15;2.90;;;2.70;;
63320;SDS011;49449;48.800;9.534;2024-03-23T04:44:42;4.95;;;3.28;;
63320;SDS011;49449;48.800;9.534;2024-03-23T04:47:10;5.07;;;3.65;;
63320;SDS011;49449;48.800;9.534;2024-03-23T04:49:37;3.35;;;3.10;;
63320;SDS011;49449;48.800;9.534;2024-03-23T04:52:04;3.63;;;3.00;;
63320;SDS011;49449;48.800;9.534;2024-03-23T04:54:31;3.63;;;2.75;;
63320;SDS011;49449;48.800;9.534;2024-03-23T04:56:58;2.25;;;2.08;;
63320;SDS011;49449;48.800;9.534;2024-03-23T04:59:26;3.78;;;3.47;;
63320;SDS011;49449;48.800;9.534;2024-03-23T05:01:56;4.90;;;3.45;;
63320;SDS011;49449;48.800;9.534;2024-03-23T05:04:23;3.20;;;2.90;;
63320;SDS011;49449;48.800;9.534;2024-03-23T05:06:49;4.72;;;3.30;;
63320;SDS011;49449;48.800;9.534;2024-03-23T05:09:15;2.92;;;2.60;;
63320;SDS011;49449;48.800;9.534;2024-03-23T05:11:42;4.40;;;3.08;;
63320;SDS011;49449;48.800;9.534;2024-03-23T05:14:10;3.75;;;2.95;;
63320;SDS011;49449;48.800;9.534;2024-03-23T05:16:38;4.70;;;3.53;;
63320;SDS011;49449;48.800;9.534;2024-03-23T05:19:06;5.30;;;4.05;;
63320;SDS011;49449;48.800;9.534;2024-03-23T05:21:31;7.68;;;5.43;;
63320;SDS011;49449;48.800;9.534;2024-03-23T05:23:58;10.98;;;7.15;;
63320;SDS011;49449;48.800;9.534;2024-03-23T05:26:24;7.97;;;6.38;;
63320;SDS011;49449;48.800;9.534;2024-03-23T05:28:51;7.63;;;6.32;;
63320;SDS011;49449;48.800;9.534;2024-03-23T05:31:22;8.07;;;6.93;;
63320;SDS011;49449;48.800;9.534;2024-03-23T05:33:51;9.40;;;6.90;;
63320;SDS011;49449;48.800;9.534;2024-03-23T05:36:17;8.50;;;6.90;;
63320;SDS011;49449;48.800;9.534;2024-03-23T05:38:44;7.60;;;5.50;;
63320;SDS011;49449;48.800;9.534;2024-03-23T05:41:10;7.88;;;5.40;;
63320;SDS011;49449;48.800;9.534;2024-03-23T05:43:37;9.88;;;7.07;;
63320;SDS011;49449;48.800;9.534;2024-03-23T05:46:04;6.38;;;5.63;;
63320;SDS011;49449;48.800;9.534;2024-03-23T05:48:31;6.97;;;5.72;;
63320;SDS011;49449;48.800;9.534;2024-03-23T05:50:59;7.47;;;6.00;;
63320;SDS011;49449;48.800;9.534;2024-03-23T05:53:25;7.53;;;6.38;;
63320;SDS011;49449;48.800;9.534;2024-03-23T05:55:59;8.40;;;6.68;;
63320;SDS011;49449;48.800;9.534;2024-03-23T05:58:29;7.35;;;6.60;;
63320;SDS011;49449;48.800;9.534;2024-03-23T06:00:56;7.68;;;6.88;;
63320;SDS011;49449;48.800;9.534;2024-03-23T06:03:25;10.70;;;8.43;;
63320;SDS011;49449;48.800;9.534;2024-03-23T06:05:51;10.32;;;8.85;;
63320;SDS011;49449;48.800;9.534;2024-03-23T06:08:20;9.52;;;8.50;;
63320;SDS011;49449;48.800;9.534;2024-03-23T06:10:46;10.32;;;7.95;;
63320;SDS011;49449;48.800;9.534;2024-03-23T06:13:13;8.43;;;6.95;;
63320;SDS011;49449;48.800;9.534;2024-03-23T06:15:39;8.05;;;7.18;;
63320;SDS011;49449;48.800;9.534;2024-03-23T06:18:06;8.40;;;6.20;;
63320;SDS011;49449;48.800;9.534;2024-03-23T06:20:33;8.38;;;6.93;;
63320;SDS011;49449;48.800;9.534;2024-03-23T06:23:00;5.68;;;5.07;;
63320;SDS011;49449;48.800;9.534;2024-03-23T06:25:30;7.65;;;6.05;;
63320;SDS011;49449;48.800;9.534;2024-03-23T06:27:57;7.22;;;6.00;;
63320;SDS011;49449;48.800;9.534;2024-03-23T06:30:23;6.93;;;5.20;;
63320;SDS011;49449;48.800;9.534;2024-03-23T06:32:52;6.07;;;4.47;;
63320;SDS011;49449;48.800;9.534;2024-03-23T06:35:18;4.82;;;4.28;;
63320;SDS011;49449;48.800;9.534;2024-03-23T06:37:45;4.50;;;3.70;;
63320;SDS011;49449;48.800;9.534;2024-03-23T06:40:11;3.22;;;2.92;;
63320;SDS011;49449;48.800;9.534;2024-03-23T06:42:39;2.92;;;2.50;;
63320;SDS011;49449;48.800;9.534;2024-03-23T06:45:05;3.72;;;3.20;;
63320;SDS011;49449;48.800;9.534;2024-03-23T06:47:33;3.22;;;2.75;;
63320;SDS011;49449;48.800;9.534;2024-03-23T06:49:59;2.53;;;2.33;;
63320;SDS011;49449;48.800;9.534;2024-03-23T06:52:28;3.10;;;2.88;;
63320;SDS011;49449;48.800;9.534;2024-03-23T06:54:54;2.50;;;2.30;;
63320;SDS011;49449;48.800;9.534;2024-03-23T06:57:22;2.67;;;2.47;;
63320;SDS011;49449;48.800;9.534;2024-03-23T06:59:49;2.00;;;1.90;;
63320;SDS011;49449;48.800;9.534;2024-03-23T07:02:16;2.60;;;2.40;;
63320;SDS011;49449;48.800;9.534;2024-03-23T07:04:42;2.22;;;2.13;;
63320;SDS011;49449;48.800;9.534;2024-03-23T07:07:09;2.33;;;2.13;;
63320;SDS011;49449;48.800;9.534;2024-03-23T07:09:35;1.92;;;1.83;;
63320;SDS011;49449;48.800;9.534;2024-03-23T07:12:03;2.08;;;1.98;;
63320;SDS011;49449;48.800;9.534;2024-03-23T07:14:30;1.95;;;1.85;;
63320;SDS011;49449;48.800;9.534;2024-03-23T07:16:58;1.98;;;1.88;;
63320;SDS011;49449;48.800;9.534;2024-03-23T07:19:24;1.83;;;1.73;;
63320;SDS011;49449;48.800;9.534;2024-03-23T07:21:51;1.52;;;1.42;;
63320;SDS011;49449;48.800;9.534;2024-03-23T07:24:16;1.23;;;1.23;;
63320;SDS011;49449;48.800;9.534;2024-03-23T07:26:43;1.30;;;1.30;;
63320;SDS011;49449;48.800;9.534;2024-03-23T07:29:09;1.52;;;1.50;;
63320;SDS011;49449;48.800;9.534;2024-03-23T07:31:36;1.58;;;1.50;;
63320;SDS011;49449;48.800;9.534;2024-03-23T07:34:03;1.20;;;1.10;;
63320;SDS011;49449;48.800;9.534;2024-03-23T07:36:31;1.40;;;1.40;;
63320;SDS011;49449;48.800;9.534;2024-03-23T07:38:58;1.50;;;1.50;;
63320;SDS011;49449;48.800;9.534;2024-03-23T07:41:25;1.80;;;1.70;;
63320;SDS011;49449;48.800;9.534;2024-03-23T07:43:53;1.35;;;1.33;;
63320;SDS011;49449;48.800;9.534;2024-03-23T07:46:20;1.55;;;1.45;;
63320;SDS011;49449;48.800;9.534;2024-03-23T07:48:46;0.85;;;0.85;;
63320;SDS011;49449;48.800;9.534;2024-03-23T07:51:18;0.88;;;0.88;;
63320;SDS011;49449;48.800;9.534;2024-03-23T07:53:46;0.70;;;0.70;;
63320;SDS011;49449;48.800;9.534;2024-03-23T07:56:14;1.40;;;1.40;;
63320;SDS011;49449;48.800;9.534;2024-03-23T07:58:41;1.42;;;1.42;;
63320;SDS011;49449;48.800;9.534;2024-03-23T08:01:08;1.35;;;1.35;;
63320;SDS011;49449;48.800;9.534;2024-03-23T08:03:36;0.82;;;0.82;;
63320;SDS011;49449;48.800;9.534;2024-03-23T08:06:07;1.52;;;1.52;;
63320;SDS011;49449;48.800;9.534;2024-03-23T08:08:36;1.05;;;1.05;;
63320;SDS011;49449;48.800;9.534;2024-03-23T08:11:04;1.08;;;1.08;;
63320;SDS011;49449;48.800;9.534;2024-03-23T08:13:30;1.25;;;0.90;;
63320;SDS011;49449;48.800;9.534;2024-03-23T08:15:58;1.48;;;1.42;;
63320;SDS011;49449;48.800;9.534;2024-03-23T08:18:25;1.30;;;1.30;;
63320;SDS011;49449;48.800;9.534;2024-03-23T08:20:56;1.67;;;1.58;;
63320;SDS011;49449;48.800;9.534;2024-03-23T08:23:24;1.38;;;1.38;;
63320;SDS011;49449;48.800;9.534;2024-03-23T08:25:51;1.58;;;1.55;;
63320;SDS011;49449;48.800;9.534;2024-03-23T08:28:18;1.50;;;1.40;;
63320;SDS011;49449;48.800;9.534;2024-03-23T08:30:49;1.20;;;1.20;;
63320;SDS011;49449;48.800;9.534;2024-03-23T08:33:16;1.52;;;1.52;;
63320;SDS011;49449;48.800;9.534;2024-03-23T08:35:42;1.92;;;1.83;;
63320;SDS011;49449;48.800;9.534;2024-03-23T08:38:18;1.40;;;1.40;;
63320;SDS011;49449;48.800;9.534;2024-03-23T08:40:44;1.55;;;1.45;;
63320;SDS011;49449;48.800;9.534;2024-03-23T08:43:12;0.60;;;0.60;;
63320;SDS011;49449;48.800;9.534;2024-03-23T08:45:38;1.60;;;1.50;;
63320;SDS011;49449;48.800;9.534;2024-03-23T08:48:05;1.42;;;1.38;;
63320;SDS011;49449;48.800;9.534;2024-03-23T08:50:31;1.83;;;1.73;;
63320;SDS011;49449;48.800;9.534;2024-03-23T08:52:58;1.08;;;1.08;;
63320;SDS011;49449;48.800;9.534;2024-03-23T08:55:24;2.22;;;1.15;;
63320;SDS011;49449;48.800;9.534;2024-03-23T08:57:51;0.77;;;0.77;;
63320;SDS011;49449;48.800;9.534;2024-03-23T09:00:18;1.90;;;1.80;;
63320;SDS011;49449;48.800;9.534;2024-03-23T09:02:47;1.20;;;1.13;;
63320;SDS011;49449;48.800;9.534;2024-03-23T09:05:13;1.35;;;1.33;;
63320;SDS011;49449;48.800;9.534;2024-03-23T09:07:40;0.93;;;0.93;;
63320;SDS011;49449;48.800;9.534;2024-03-23T09:10:07;2.22;;;1.88;;
63320;SDS011;49449;48.800;9.534;2024-03-23T09:12:39;1.70;;;1.60;;
63320;SDS011;49449;48.800;9.534;2024-03-23T09:15:05;3.25;;;1.40;;
63320;SDS011;49449;48.800;9.534;2024-03-23T09:17:33;2.55;;;1.40;;
63320;SDS011;49449;48.800;9.534;2024-03-23T09:20:01;2.05;;;1.85;;
63320;SDS011;49449;48.800;9.534;2024-03-23T09:22:28;2.60;;;1.42;;
63320;SDS011;49449;48.800;9.534;2024-03-23T09:24:54;2.22;;;1.90;;
63320;SDS011;49449;48.800;9.534;2024-03-23T09:27:21;1.73;;;1.38;;
63320;SDS011;49449;48.800;9.534;2024-03-23T09:29:48;2.50;;;1.52;;
63320;SDS011;49449;48.800;9.534;2024-03-23T09:32:15;3.10;;;2.05;;
63320;SDS011;49449;48.800;9.534;2024-03-23T09:34:42;2.78;;;1.80;;
63320;SDS011;49449;48.800;9.534;2024-03-23T09:37:09;2.83;;;2.03;;
63320;SDS011;49449;48.800;9.534;2024-03-23T09:39:35;3.53;;;2.03;;
63320;SDS011;49449;48.800;9.534;2024-03-23T09:42:02;2.35;;;2.03;;
63320;SDS011;49449;48.800;9.534;2024-03-23T09:44:30;2.33;;;2.13;;
63320;SDS011;49449;48.800;9.534;2024-03-23T09:46:57;2.95;;;2.20;;
63320;SDS011;49449;48.800;9.534;2024-03-23T09:49:23;3.10;;;2.40;;
63320;SDS011;49449;48.800;9.534;2024-03-23T09:51:51;3.08;;;2.10;;
63320;SDS011;49449;48.800;9.534;2024-03-23T09:54:17;3.45;;;2.45;;
63320;SDS011;49449;48.800;9.534;2024-03-23T09:56:44;2.50;;;1.85;;
63320;SDS011;49449;48.800;9.534;2024-03-23T09:59:17;3.97;;;2.67;;
63320;SDS011;49449;48.800;9.534;2024-03-23T10:01:44;4.57;;;2.78;;
63320;SDS011;49449;48.800;9.534;2024-03-23T10:07:11;4.88;;;2.65;;
63320;SDS011;49449;48.800;9.534;2024-03-23T10:09:38;4.60;;;3.03;;
63320;SDS011;49449;48.800;9.534;2024-03-23T10:12:08;3.60;;;2.40;;
63320;SDS011;49449;48.800;9.534;2024-03-23T10:14:35;7.57;;;3.75;;
63320;SDS011;49449;48.800;9.534;2024-03-23T10:17:13;6.47;;;3.25;;
63320;SDS011;49449;48.800;9.534;2024-03-23T10:19:41;4.43;;;2.38;;
63320;SDS011;49449;48.800;9.534;2024-03-23T10:22:13;4.85;;;2.30;;
63320;SDS011;49449;48.800;9.534;2024-03-23T10:24:40;7.65;;;2.67;;
63320;SDS011;49449;48.800;9.534;2024-03-23T10:27:07;5.10;;;2.95;;
63320;SDS011;49449;48.800;9.534;2024-03-23T10:29:33;2.35;;;2.15;;
63320;SDS011;49449;48.800;9.534;2024-03-23T10:32:10;6.50;;;2.42;;
63320;SDS011;49449;48.800;9.534;2024-03-23T10:34:36;4.07;;;2.72;;
63320;SDS011;49449;48.800;9.534;2024-03-23T10:37:04;3.72;;;2.63;;
63320;SDS011;49449;48.800;9.534;2024-03-23T10:39:33;4.78;;;2.85;;
63320;SDS011;49449;48.800;9.534;2024-03-23T10:42:02;4.28;;;2.65;;
63320;SDS011;49449;48.800;9.534;2024-03-23T10:44:28;3.47;;;1.92;;
63320;SDS011;49449;48.800;9.534;2024-03-23T10:46:56;3.58;;;3.00;;
63320;SDS011;49449;48.800;9.534;2024-03-23T10:49:28;4.97;;;2.70;;
63320;SDS011;49449;48.800;9.534;2024-03-23T10:51:59;5.20;;;2.97;;
63320;SDS011;49449;48.800;9.534;2024-03-23T10:54:26;5.32;;;3.22;;
63320;SDS011;49449;48.800;9.534;2024-03-23T10:56:56;5.65;;;3.05;;
63320;SDS011;49449;48.800;9.534;2024-03-23T10:59:27;3.65;;;2.67;;
63320;SDS011;49449;48.800;9.534;2024-03-23T11:01:55;4.05;;;2.95;;
63320;SDS011;49449;48.800;9.534;2024-03-23T11:04:34;4.40;;;2.63;;
63320;SDS011;49449;48.800;9.534;2024-03-23T11:07:05;3.53;;;2.80;;
63320;SDS011;49449;48.800;9.534;2024-03-23T11:09:55;4.60;;;3.00;;
63320;SDS011;49449;48.800;9.534;2024-03-23T11:12:27;4.07;;;2.55;;
63320;SDS011;49449;48.800;9.534;2024-03-23T11:14:57;5.25;;;3.40;;
63320;SDS011;49449;48.800;9.534;2024-03-23T11:17:27;6.20;;;3.40;;
63320;SDS011;49449;48.800;9.534;2024-03-23T11:19:53;5.68;;;3.03;;
63320;SDS011;49449;48.800;9.534;2024-03-23T11:22:41;3.85;;;3.30;;
63320;SDS011;49449;48.800;9.534;2024-03-23T11:25:15;4.32;;;2.80;;
63320;SDS011;49449;48.800;9.534;2024-03-23T11:27:44;4.05;;;3.33;;
63320;SDS011;49449;48.800;9.534;2024-03-23T11:30:15;3.45;;;3.00;;
63320;SDS011;49449;48.800;9.534;2024-03-23T11:32:43;5.68;;;3.10;;
63320;SDS011;49449;48.800;9.534;2024-03-23T11:35:10;5.32;;;3.67;;
63320;SDS011;49449;48.800;9.534;2024-03-23T11:38:01;6.63;;;3.28;;
63320;SDS011;49449;48.800;9.534;2024-03-23T11:40:28;7.97;;;3.65;;
63320;SDS011;49449;48.800;9.534;2024-03-23T11:42:57;5.97;;;3.67;;
63320;SDS011;49449;48.800;9.534;2024-03-23T11:45:23;7.28;;;3.40;;
63320;SDS011;49449;48.800;9.534;2024-03-23T11:48:01;5.43;;;3.00;;
63320;SDS011;49449;48.800;9.534;2024-03-23T11:50:27;6.70;;;3.58;;
63320;SDS011;49449;48.800;9.534;2024-03-23T11:53:05;5.63;;;3.15;;
63320;SDS011;49449;48.800;9.534;2024-03-23T11:55:43;3.78;;;3.00;;
63320;SDS011;49449;48.800;9.534;2024-03-23T11:58:15;5.45;;;3.03;;
63320;SDS011;49449;48.800;9.534;2024-03-23T12:00:42;3.13;;;2.85;;
63320;SDS011;49449;48.800;9.534;2024-03-23T12:03:15;3.22;;;2.40;;
63320;SDS011;49449;48.800;9.534;2024-03-23T12:05:42;3.88;;;2.40;;
63320;SDS011;49449;48.800;9.534;2024-03-23T12:08:18;2.30;;;2.08;;
63320;SDS011;49449;48.800;9.534;2024-03-23T12:10:46;2.65;;;2.45;;
63320;SDS011;49449;48.800;9.534;2024-03-23T12:13:16;3.80;;;2.83;;
63320;SDS011;49449;48.800;9.534;2024-03-23T12:15:43;2.40;;;2.20;;
63320;SDS011;49449;48.800;9.534;2024-03-23T12:18:11;3.30;;;2.78;;
63320;SDS011;49449;48.800;9.534;2024-03-23T12:20:37;2.30;;;2.17;;
63320;SDS011;49449;48.800;9.534;2024-03-23T12:23:05;2.80;;;1.85;;
63320;SDS011;49449;48.800;9.534;2024-03-23T12:25:32;1.98;;;1.80;;
63320;SDS011;49449;48.800;9.534;2024-03-23T12:27:59;3.45;;;2.50;;
63320;SDS011;49449;48.800;9.534;2024-03-23T12:30:26;2.90;;;2.70;;
63320;SDS011;49449;48.800;9.534;2024-03-23T12:32:53;2.97;;;2.47;;
63320;SDS011;49449;48.800;9.534;2024-03-23T12:35:19;3.38;;;2.10;;
63320;SDS011;49449;48.800;9.534;2024-03-23T12:37:46;2.25;;;2.05;;
63320;SDS011;49449;48.800;9.534;2024-03-23T12:40:12;2.42;;;1.58;;
63320;SDS011;49449;48.800;9.534;2024-03-23T12:42:39;3.28;;;2.58;;
63320;SDS011;49449;48.800;9.534;2024-03-23T12:45:05;2.15;;;1.80;;
63320;SDS011;49449;48.800;9.534;2024-03-23T12:47:34;2.83;;;2.58;;
63320;SDS011;49449;48.800;9.534;2024-03-23T12:50:00;3.75;;;1.92;;
63320;SDS011;49449;48.800;9.534;2024-03-23T12:52:27;4.38;;;2.55;;
63320;SDS011;49449;48.800;9.534;2024-03-23T12:54:54;3.58;;;2.10;;
63320;SDS011;49449;48.800;9.534;2024-03-23T12:57:23;2.58;;;2.28;;
63320;SDS011;49449;48.800;9.534;2024-03-23T12:59:49;2.78;;;2.53;;
63320;SDS011;49449;48.800;9.534;2024-03-23T13:02:18;4.00;;;2.47;;
63320;SDS011;49449;48.800;9.534;2024-03-23T13:04:46;3.85;;;2.60;;
63320;SDS011;49449;48.800;9.534;2024-03-23T13:07:13;4.22;;;2.00;;
63320;SDS011;49449;48.800;9.534;2024-03-23T13:09:39;3.47;;;2.60;;
63320;SDS011;49449;48.800;9.534;2024-03-23T13:12:06;3.53;;;2.65;;
63320;SDS011;49449;48.800;9.534;2024-03-23T13:14:33;2.67;;;1.90;;
63320;SDS011;49449;48.800;9.534;2024-03-23T13:16:59;4.40;;;2.50;;
63320;SDS011;49449;48.800;9.534;2024-03-23T13:19:27;2.97;;;2.10;;
63320;SDS011;49449;48.800;9.534;2024-03-23T13:21:57;3.47;;;2.30;;
63320;SDS011;49449;48.800;9.534;2024-03-23T13:24:23;4.40;;;2.53;;
63320;SDS011;49449;48.800;9.534;2024-03-23T13:26:51;6.00;;;3.00;;
63320;SDS011;49449;48.800;9.534;2024-03-23T13:29:17;4.47;;;2.55;;
63320;SDS011;49449;48.800;9.534;2024-03-23T13:31:44;2.05;;;1.77;;
63320;SDS011;49449;48.800;9.534;2024-03-23T13:34:10;3.00;;;2.40;;
63320;SDS011;49449;48.800;9.534;2024-03-23T13:36:38;4.97;;;2.63;;
63320;SDS011;49449;48.800;9.534;2024-03-23T13:39:05;4.53;;;2.17;;
63320;SDS011;49449;48.800;9.534;2024-03-23T13:41:37;5.78;;;2.65;;
63320;SDS011;49449;48.800;9.534;2024-03-23T13:44:04;6.22;;;2.00;;
63320;SDS011;49449;48.800;9.534;2024-03-23T13:46:31;7.07;;;2.53;;
63320;SDS011;49449;48.800;9.534;2024-03-23T13:48:57;6.50;;;2.33;;
63320;SDS011;49449;48.800;9.534;2024-03-23T13:51:24;4.20;;;2.60;;
63320;SDS011;49449;48.800;9.534;2024-03-23T13:53:52;3.55;;;2.33;;
63320;SDS011;49449;48.800;9.534;2024-03-23T13:56:21;5.00;;;2.50;;
63320;SDS011;49449;48.800;9.534;2024-03-23T13:58:47;4.45;;;2.10;;
63320;SDS011;49449;48.800;9.534;2024-03-23T14:01:14;7.13;;;2.90;;
63320;SDS011;49449;48.800;9.534;2024-03-23T14:03:40;5.35;;;2.95;;
63320;SDS011;49449;48.800;9.534;2024-03-23T14:06:07;4.32;;;2.53;;
63320;SDS011;49449;48.800;9.534;2024-03-23T14:08:34;5.15;;;2.80;;
63320;SDS011;49449;48.800;9.534;2024-03-23T14:11:02;2.97;;;2.67;;
63320;SDS011;49449;48.800;9.534;2024-03-23T14:13:30;5.10;;;2.85;;
63320;SDS011;49449;48.800;9.534;2024-03-23T14:15:58;6.63;;;2.45;;
63320;SDS011;49449;48.800;9.534;2024-03-23T14:18:24;3.08;;;2.17;;
63320;SDS011;49449;48.800;9.534;2024-03-23T14:20:52;2.60;;;1.77;;
63320;SDS011;49449;48.800;9.534;2024-03-23T14:23:24;3.92;;;1.98;;
63320;SDS011;49449;48.800;9.534;2024-03-23T14:25:52;4.53;;;2.13;;
63320;SDS011;49449;48.800;9.534;2024-03-23T14:28:19;4.30;;;1.90;;
63320;SDS011;49449;48.800;9.534;2024-03-23T14:30:46;3.35;;;2.17;;
63320;SDS011;49449;48.800;9.534;2024-03-23T14:33:13;2.72;;;1.90;;
63320;SDS011;49449;48.800;9.534;2024-03-23T14:35:39;2.55;;;1.85;;
63320;SDS011;49449;48.800;9.534;2024-03-23T14:38:06;2.90;;;2.03;;
63320;SDS011;49449;48.800;9.534;2024-03-23T14:40:32;2.22;;;1.70;;
63320;SDS011;49449;48.800;9.534;2024-03-23T14:42:59;2.22;;;1.60;;
63320;SDS011;49449;48.800;9.534;2024-03-23T14:45:25;2.20;;;1.10;;
63320;SDS011;49449;48.800;9.534;2024-03-23T14:47:53;3.90;;;2.53;;
63320;SDS011;49449;48.800;9.534;2024-03-23T14:50:20;2.67;;;2.05;;
63320;SDS011;49449;48.800;9.534;2024-03-23T14:52:47;2.22;;;1.10;;
63320;SDS011;49449;48.800;9.534;2024-03-23T14:55:13;1.60;;;1.50;;
63320;SDS011;49449;48.800;9.534;2024-03-23T14:57:40;1.75;;;1.65;;
63320;SDS011;49449;48.800;9.534;2024-03-23T15:00:07;2.42;;;1.50;;
63320;SDS011;49449;48.800;9.534;2024-03-23T15:02:36;3.33;;;1.75;;
63320;SDS011;49449;48.800;9.534;2024-03-23T15:05:03;2.28;;;1.95;;
63320;SDS011;49449;48.800;9.534;2024-03-23T15:07:35;2.55;;;1.70;;
63320;SDS011;49449;48.800;9.534;2024-03-23T15:10:01;2.28;;;1.77;;
63320;SDS011;49449;48.800;9.534;2024-03-23T15:12:30;2.63;;;1.80;;
63320;SDS011;49449;48.800;9.534;2024-03-23T15:14:58;1.80;;;1.70;;
63320;SDS011;49449;48.800;9.534;2024-03-23T15:17:25;3.17;;;1.73;;
63320;SDS011;49449;48.800;9.534;2024-03-23T15:19:51;1.80;;;1.70;;
63320;SDS011;49449;48.800;9.534;2024-03-23T15:22:20;1.95;;;1.80;;
63320;SDS011;49449;48.800;9.534;2024-03-23T15:24:47;1.83;;;1.73;;
63320;SDS011;49449;48.800;9.534;2024-03-23T15:27:14;2.67;;;1.27;;
63320;SDS011;49449;48.800;9.534;2024-03-23T15:29:40;2.83;;;1.70;;
63320;SDS011;49449;48.800;9.534;2024-03-23T15:32:11;2.05;;;1.83;;
63320;SDS011;49449;48.800;9.534;2024-03-23T15:34:36;2.67;;;1.02;;
63320;SDS011;49449;48.800;9.534;2024-03-23T15:37:03;2.83;;;1.77;;
63320;SDS011;49449;48.800;9.534;2024-03-23T15:39:31;1.40;;;1.30;;
63320;SDS011;49449;48.800;9.534;2024-03-23T15:41:58;2.70;;;1.67;;
63320;SDS011;49449;48.800;9.534;2024-03-23T15:44:24;2.63;;;1.77;;
63320;SDS011;49449;48.800;9.534;2024-03-23T15:46:51;1.80;;;1.70;;